Time;durP1;ratioP1;P1;durP2;ratioP2;P2;SDS_P1;SDS_P2;PMS_P1;PMS_P2;Temp;Humidity;BMP_temperature;BMP_pressure;BME280_temperature;BME280_humidity;BME280_pressure;Samples;Min_cycle;Max_cycle;Signal;HPM_P1;HPM_P2
2023/05/30 00:01:45;;;;;;;7.37;5.00;;;18.50;92.30;;;;;;5095700;28;20180;-75
2023/05/30 00:04:11;;;;;;;7.67;5.10;;;18.40;92.30;;;;;;5113114;28;20401;-75
2023/05/30 00:06:36;;;;;;;5.83;4.33;;;18.30;92.80;;;;;;5097661;28;20950;-75
2023/05/30 00:09:02;;;;;;;7.90;5.00;;;18.30;93.50;;;;;;5116181;28;20190;-75
2023/05/30 00:11:29;;;;;;;5.63;4.97;;;18.20;92.90;;;;;;5116308;28;20246;-75
2023/05/30 00:13:58;;;;;;;6.80;5.10;;;18.10;93.70;;;;;;5116747;28;20481;-75
2023/05/30 00:16:23;;;;;;;7.30;4.83;;;18.00;93.70;;;;;;5116401;28;20413;-75
2023/05/30 00:18:52;;;;;;;5.90;4.60;;;18.00;94.10;;;;;;5116328;28;21028;-75
2023/05/30 00:21:18;;;;;;;5.13;4.63;;;18.00;94.40;;;;;;5116288;28;20180;-73
2023/05/30 00:23:48;;;;;;;6.00;5.10;;;17.90;94.40;;;;;;5116325;28;20741;-75
2023/05/30 00:26:14;;;;;;;7.17;4.83;;;17.90;94.80;;;;;;5116310;28;20439;-75
2023/05/30 00:28:40;;;;;;;8.40;5.37;;;17.80;95.10;;;;;;5115886;28;20398;-75
2023/05/30 00:31:06;;;;;;;6.70;5.20;;;17.80;95.70;;;;;;5116074;28;20426;-75
2023/05/30 00:33:32;;;;;;;9.63;5.40;;;17.80;95.80;;;;;;5116133;28;20611;-75
2023/05/30 00:35:58;;;;;;;5.90;4.90;;;17.70;95.90;;;;;;5115978;28;20458;-74
2023/05/30 00:38:24;;;;;;;5.83;4.80;;;17.50;96.30;;;;;;5116104;28;20236;-74
2023/05/30 00:40:49;;;;;;;6.67;5.47;;;17.50;96.90;;;;;;5115681;28;20208;-74
2023/05/30 00:43:18;;;;;;;6.70;5.10;;;17.40;97.00;;;;;;5097349;28;20648;-74
2023/05/30 00:45:44;;;;;;;6.43;5.43;;;17.30;97.60;;;;;;5115869;28;20407;-75
2023/05/30 00:48:09;;;;;;;7.00;5.37;;;17.20;98.00;;;;;;5115909;28;20395;-74
2023/05/30 00:50:36;;;;;;;5.90;4.97;;;17.20;98.50;;;;;;5097501;28;20827;-74
2023/05/30 00:53:04;;;;;;;6.33;5.73;;;17.10;99.10;;;;;;5116332;28;20161;-74
2023/05/30 00:55:30;;;;;;;6.93;5.70;;;17.10;99.00;;;;;;5115996;28;20402;-74
2023/05/30 00:57:56;;;;;;;7.97;5.50;;;17.10;99.40;;;;;;5115435;28;20460;-74
2023/05/30 01:00:24;;;;;;;6.97;5.67;;;17.20;99.40;;;;;;5115584;28;20181;-74
2023/05/30 01:02:51;;;;;;;6.57;5.90;;;17.30;99.30;;;;;;5115635;28;20168;-74
2023/05/30 01:05:17;;;;;;;7.67;5.67;;;17.30;99.50;;;;;;5116224;28;20402;-74
2023/05/30 01:07:43;;;;;;;6.10;5.60;;;17.10;99.90;;;;;;5116131;28;20426;-74
2023/05/30 01:10:13;;;;;;;5.13;4.60;;;17.10;99.90;;;;;;5115703;28;20586;-73
2023/05/30 01:13:00;;;;;;;6.97;5.37;;;17.10;99.90;;;;;;5115490;28;20402;-72
2023/05/30 01:15:52;;;;;;;4.93;4.43;;;17.10;99.90;;;;;;5115818;28;20443;-74
2023/05/30 01:18:44;;;;;;;5.40;4.50;;;17.00;99.90;;;;;;5115456;28;20430;-75
2023/05/30 01:21:11;;;;;;;6.63;5.90;;;16.90;99.90;;;;;;5115491;28;20925;-74
2023/05/30 01:24:00;;;;;;;5.50;5.00;;;16.90;99.90;;;;;;5096825;28;20403;-74
2023/05/30 01:27:03;;;;;;;5.67;5.17;;;17.00;99.90;;;;;;5115416;28;20387;-74
2023/05/30 01:29:30;;;;;;;6.40;5.00;;;17.10;99.90;;;;;;5115300;28;20417;-74
2023/05/30 01:31:58;;;;;;;6.73;4.60;;;17.10;99.90;;;;;;5114872;28;20521;-75
2023/05/30 01:34:24;;;;;;;7.33;5.30;;;17.10;99.90;;;;;;5115113;28;20455;-75
2023/05/30 01:36:50;;;;;;;6.20;5.60;;;17.10;99.90;;;;;;5096677;28;20426;-74
2023/05/30 01:39:16;;;;;;;8.10;5.23;;;17.20;99.90;;;;;;5115099;28;20982;-75
2023/05/30 01:42:02;;;;;;;5.13;4.63;;;17.20;99.90;;;;;;5114575;28;20714;-75
2023/05/30 01:44:54;;;;;;;6.97;4.40;;;17.00;99.90;;;;;;5096584;28;20386;-74
2023/05/30 01:47:44;;;;;;;7.47;5.20;;;17.00;99.90;;;;;;5114984;28;20386;-74
2023/05/30 01:50:09;;;;;;;5.73;4.90;;;17.00;99.90;;;;;;5114776;28;20424;-74
2023/05/30 01:52:40;;;;;;;5.80;5.20;;;17.10;99.90;;;;;;5096400;28;20490;-74
2023/05/30 01:55:08;;;;;;;5.70;5.10;;;17.00;99.90;;;;;;5096243;28;20644;-75
2023/05/30 01:57:39;;;;;;;5.43;4.93;;;17.00;99.90;;;;;;5114082;28;20413;-74
2023/05/30 02:00:06;;;;;;;5.03;4.53;;;17.00;99.90;;;;;;5096479;28;20958;-74
2023/05/30 02:02:32;;;;;;;6.97;5.17;;;17.00;99.90;;;;;;5114271;28;20816;-74
2023/05/30 02:04:57;;;;;;;5.87;4.80;;;17.00;99.90;;;;;;5096026;28;20403;-74
2023/05/30 02:07:23;;;;;;;5.40;3.87;;;16.90;99.90;;;;;;5114433;28;20395;-74
2023/05/30 02:09:48;;;;;;;5.53;4.77;;;16.80;99.90;;;;;;5095467;28;20314;-74
2023/05/30 02:12:14;;;;;;;5.80;5.00;;;16.90;99.90;;;;;;5113969;28;20180;-74
2023/05/30 02:14:40;;;;;;;5.87;4.50;;;16.80;99.90;;;;;;5114473;28;20188;-74
2023/05/30 02:17:06;;;;;;;5.30;4.70;;;16.70;99.90;;;;;;5114089;28;20201;-74
2023/05/30 02:19:31;;;;;;;4.97;4.43;;;16.40;99.90;;;;;;5095634;28;20207;-75
2023/05/30 02:21:57;;;;;;;6.37;4.83;;;16.40;99.90;;;;;;5095707;28;20422;-74
2023/05/30 02:24:22;;;;;;;5.90;4.87;;;16.50;99.90;;;;;;5113915;28;20188;-74
2023/05/30 02:26:48;;;;;;;6.13;4.93;;;16.30;99.90;;;;;;5114088;28;20520;-74
2023/05/30 02:29:14;;;;;;;6.27;4.33;;;16.30;99.90;;;;;;5094930;28;20168;-74
2023/05/30 02:31:39;;;;;;;6.17;4.70;;;16.30;99.90;;;;;;5113775;28;20187;-74
2023/05/30 02:34:05;;;;;;;6.77;5.33;;;16.10;99.90;;;;;;5114368;28;20179;-73
2023/05/30 02:36:32;;;;;;;6.13;5.20;;;16.10;99.90;;;;;;5095663;28;20187;-73
2023/05/30 02:39:05;;;;;;;6.57;5.87;;;16.20;99.90;;;;;;5113602;28;20184;-73
2023/05/30 02:41:30;;;;;;;6.33;5.73;;;16.30;99.90;;;;;;5113508;28;20450;-73
2023/05/30 02:43:56;;;;;;;5.13;4.63;;;16.20;99.90;;;;;;5113508;28;20443;-73
2023/05/30 02:46:22;;;;;;;7.43;5.67;;;16.20;99.90;;;;;;5113951;28;20168;-73
2023/05/30 02:48:47;;;;;;;6.60;5.20;;;16.20;99.90;;;;;;5113854;28;20167;-73
2023/05/30 02:51:13;;;;;;;9.20;4.73;;;16.10;99.90;;;;;;5095286;28;20727;-73
2023/05/30 02:53:40;;;;;;;5.70;4.50;;;15.90;99.90;;;;;;5095270;28;20168;-75
2023/05/30 02:56:05;;;;;;;4.80;4.33;;;16.00;99.90;;;;;;5113197;28;20169;-74
2023/05/30 02:58:31;;;;;;;4.97;4.50;;;16.00;99.90;;;;;;5113377;28;20450;-74
2023/05/30 03:00:56;;;;;;;5.30;4.80;;;16.10;99.90;;;;;;5113373;28;20219;-74
2023/05/30 03:03:24;;;;;;;5.77;5.20;;;16.10;99.90;;;;;;5113670;28;20167;-74
2023/05/30 03:05:51;;;;;;;6.17;4.97;;;15.90;99.90;;;;;;5095290;28;20199;-74
2023/05/30 03:08:16;;;;;;;6.40;5.33;;;15.90;99.90;;;;;;5095190;28;20414;-73
2023/05/30 03:10:42;;;;;;;8.27;5.20;;;15.90;99.90;;;;;;5095175;28;20433;-73
2023/05/30 03:13:08;;;;;;;5.20;4.70;;;15.90;99.90;;;;;;5113115;28;20161;-74
2023/05/30 03:15:33;;;;;;;5.53;4.30;;;15.90;99.90;;;;;;5113704;28;20168;-73
2023/05/30 03:17:59;;;;;;;5.93;5.20;;;15.80;99.90;;;;;;5094947;28;20499;-72
2023/05/30 03:20:25;;;;;;;5.97;5.20;;;15.90;99.90;;;;;;5094951;28;20238;-73
2023/05/30 03:22:50;;;;;;;6.07;4.83;;;15.80;99.90;;;;;;5113373;28;20195;-73
2023/05/30 03:25:16;;;;;;;7.67;5.10;;;15.90;99.90;;;;;;5113351;28;20167;-73
2023/05/30 03:27:41;;;;;;;6.63;5.60;;;15.80;99.90;;;;;;5112962;28;20166;-73
2023/05/30 03:30:08;;;;;;;6.70;5.53;;;15.50;99.90;;;;;;5113368;28;20180;-73
2023/05/30 03:32:33;;;;;;;5.10;4.53;;;15.60;99.90;;;;;;5113580;28;20209;-75
2023/05/30 03:34:59;;;;;;;5.77;4.97;;;15.70;99.90;;;;;;5113279;28;20414;-73
2023/05/30 03:37:24;;;;;;;5.50;4.60;;;15.80;99.90;;;;;;5113068;28;20178;-73
2023/05/30 03:39:50;;;;;;;5.90;5.10;;;15.90;99.90;;;;;;5095010;28;20666;-73
2023/05/30 03:42:15;;;;;;;5.20;4.70;;;15.80;99.90;;;;;;5117654;28;20169;-73
2023/05/30 03:44:41;;;;;;;5.47;4.50;;;15.80;99.90;;;;;;5117735;28;20265;-74
2023/05/30 03:47:07;;;;;;;7.27;4.73;;;15.70;99.90;;;;;;5117560;28;20508;-73
2023/05/30 03:49:32;;;;;;;6.00;4.93;;;15.60;99.90;;;;;;5098833;28;20172;-73
2023/05/30 03:51:58;;;;;;;5.80;4.63;;;15.60;99.90;;;;;;5098504;28;20306;-75
2023/05/30 03:54:23;;;;;;;5.90;5.30;;;15.60;99.90;;;;;;5098590;28;20179;-75
2023/05/30 03:56:49;;;;;;;6.20;4.93;;;15.60;99.90;;;;;;5117047;28;20598;-75
2023/05/30 03:59:17;;;;;;;6.00;4.93;;;15.70;99.90;;;;;;5098301;28;20693;-75
2023/05/30 04:01:43;;;;;;;8.63;5.53;;;15.80;99.90;;;;;;5098357;28;20245;-75
2023/05/30 04:04:08;;;;;;;11.53;5.43;;;15.80;99.90;;;;;;5116710;28;20403;-75
2023/05/30 04:06:36;;;;;;;5.13;4.60;;;15.90;99.90;;;;;;5116585;28;20171;-75
2023/05/30 04:09:03;;;;;;;5.90;5.30;;;15.90;99.90;;;;;;5116427;28;20218;-75
2023/05/30 04:11:31;;;;;;;5.43;4.90;;;15.90;99.90;;;;;;5116397;28;20547;-75
2023/05/30 04:13:56;;;;;;;7.20;5.30;;;15.90;99.90;;;;;;5116349;28;20547;-75
2023/05/30 04:16:23;;;;;;;6.00;4.40;;;15.90;99.90;;;;;;5116580;28;20874;-73
2023/05/30 04:18:49;;;;;;;5.87;4.87;;;15.80;99.90;;;;;;5116294;28;20546;-73
2023/05/30 04:21:15;;;;;;;10.00;5.43;;;15.90;99.90;;;;;;5116616;28;20429;-73
2023/05/30 04:23:41;;;;;;;5.70;4.70;;;15.90;99.90;;;;;;5116633;28;20171;-75
2023/05/30 04:26:10;;;;;;;5.03;4.53;;;15.90;99.90;;;;;;5116598;28;20409;-73
2023/05/30 04:28:39;;;;;;;5.90;4.90;;;16.00;99.90;;;;;;5116453;28;20429;-74
2023/05/30 04:31:08;;;;;;;6.93;5.37;;;15.90;99.90;;;;;;5098264;28;20944;-74
2023/05/30 04:33:35;;;;;;;14.00;5.83;;;16.10;99.90;;;;;;5099410;28;20794;-74
2023/05/30 04:36:10;;;;;;;6.03;5.03;;;16.20;99.90;;;;;;5117058;28;20408;-74
2023/05/30 04:38:37;;;;;;;5.80;5.13;;;16.00;99.90;;;;;;5117513;28;20827;-74
2023/05/30 04:41:04;;;;;;;5.50;5.00;;;16.10;99.90;;;;;;5128651;22;20490;-75
2023/05/30 04:43:30;;;;;;;8.23;4.67;;;16.20;99.90;;;;;;5097342;28;20421;-76
2023/05/30 04:45:55;;;;;;;7.80;5.60;;;16.40;99.90;;;;;;5115779;28;20447;-76
2023/05/30 04:48:21;;;;;;;6.47;4.57;;;16.40;99.90;;;;;;5115631;28;20395;-76
2023/05/30 04:50:47;;;;;;;6.40;4.90;;;16.50;99.90;;;;;;5115283;28;20191;-75
2023/05/30 04:53:15;;;;;;;5.70;4.70;;;16.50;99.90;;;;;;5115566;28;20176;-75
2023/05/30 04:55:44;;;;;;;6.87;6.17;;;16.60;99.90;;;;;;5115533;28;20177;-76
2023/05/30 04:58:10;;;;;;;8.00;6.03;;;16.60;99.90;;;;;;5114949;28;20824;-75
2023/05/30 05:00:36;;;;;;;5.53;5.00;;;16.60;99.90;;;;;;5115615;28;20430;-75
2023/05/30 05:03:02;;;;;;;7.33;5.60;;;16.80;99.90;;;;;;5115421;28;20619;-75
2023/05/30 05:05:28;;;;;;;5.50;4.87;;;16.90;99.90;;;;;;5115426;28;20413;-75
2023/05/30 05:07:53;;;;;;;9.53;6.30;;;17.00;99.90;;;;;;5115547;28;20407;-76
2023/05/30 05:10:20;;;;;;;7.27;5.43;;;17.10;99.90;;;;;;5115763;28;20633;-77
2023/05/30 05:12:45;;;;;;;7.37;5.60;;;17.30;99.90;;;;;;5115418;28;20610;-77
2023/05/30 05:15:12;;;;;;;8.47;6.30;;;17.40;99.90;;;;;;5112283;28;20442;-77
2023/05/30 05:17:38;;;;;;;5.30;4.77;;;17.30;99.90;;;;;;5088007;28;20176;-77
2023/05/30 05:20:05;;;;;;;6.27;4.80;;;17.10;99.90;;;;;;5115176;28;20835;-77
2023/05/30 05:22:32;;;;;;;7.30;5.40;;;17.10;99.90;;;;;;5115295;28;20430;-77
2023/05/30 05:24:58;;;;;;;7.47;5.67;;;16.90;99.90;;;;;;5096967;28;20920;-77
2023/05/30 05:27:25;;;;;;;5.80;5.00;;;16.90;99.90;;;;;;5114734;28;20465;-77
2023/05/30 05:29:50;;;;;;;8.17;5.83;;;16.80;99.90;;;;;;5114868;28;20208;-77
2023/05/30 05:32:16;;;;;;;5.50;5.00;;;16.80;99.90;;;;;;5115126;28;20520;-77
2023/05/30 05:34:42;;;;;;;6.80;5.87;;;16.80;99.90;;;;;;5114802;28;20519;-77
2023/05/30 05:37:07;;;;;;;7.70;5.70;;;16.70;99.90;;;;;;5114973;28;20165;-77
2023/05/30 05:39:33;;;;;;;9.17;5.50;;;16.60;99.90;;;;;;5114514;28;20192;-77
2023/05/30 05:41:58;;;;;;;6.73;4.73;;;16.60;99.90;;;;;;5114492;28;20204;-77
2023/05/30 05:44:24;;;;;;;6.70;5.47;;;16.80;99.90;;;;;;5096043;28;20220;-77
2023/05/30 05:46:49;;;;;;;5.90;4.57;;;17.20;99.90;;;;;;5114629;28;20200;-77
2023/05/30 05:49:15;;;;;;;8.50;6.27;;;17.60;99.90;;;;;;5114420;28;20180;-78
2023/05/30 05:51:40;;;;;;;8.40;4.90;;;17.50;99.90;;;;;;5114760;28;20196;-77
2023/05/30 05:54:06;;;;;;;7.90;4.70;;;17.60;99.90;;;;;;5114745;28;20191;-77
2023/05/30 05:56:31;;;;;;;7.20;5.13;;;17.80;99.90;;;;;;5096206;28;20175;-77
2023/05/30 05:58:57;;;;;;;6.43;5.30;;;17.70;99.90;;;;;;5114053;28;20196;-77
2023/05/30 06:01:23;;;;;;;5.43;4.90;;;17.90;99.90;;;;;;5114170;28;20192;-76
2023/05/30 06:03:48;;;;;;;8.60;5.30;;;17.40;99.90;;;;;;5113989;28;20196;-77
2023/05/30 06:06:14;;;;;;;8.57;5.53;;;17.70;99.90;;;;;;5095793;28;20173;-77
2023/05/30 06:08:40;;;;;;;4.60;4.20;;;17.90;99.90;;;;;;5114059;28;20176;-77
2023/05/30 06:11:05;;;;;;;6.50;5.63;;;17.70;99.90;;;;;;5114085;28;20196;-77
2023/05/30 06:13:31;;;;;;;7.90;5.60;;;17.80;99.90;;;;;;5113733;28;20458;-77
2023/05/30 06:15:57;;;;;;;7.20;5.40;;;17.80;99.90;;;;;;5113758;28;20169;-77
2023/05/30 06:18:22;;;;;;;9.90;5.90;;;17.60;99.90;;;;;;5114007;28;20636;-78
2023/05/30 06:20:48;;;;;;;6.90;5.30;;;17.70;99.90;;;;;;5113697;28;20188;-77
2023/05/30 06:23:13;;;;;;;6.60;5.27;;;17.90;99.90;;;;;;5113948;28;20200;-77
2023/05/30 06:25:39;;;;;;;7.70;5.10;;;17.80;99.90;;;;;;5114027;28;20165;-77
2023/05/30 06:28:05;;;;;;;8.60;5.50;;;17.70;99.90;;;;;;5113404;28;20647;-77
2023/05/30 06:30:30;;;;;;;7.80;4.60;;;18.00;99.90;;;;;;5113559;28;20465;-77
2023/05/30 06:32:56;;;;;;;8.67;5.50;;;17.60;99.90;;;;;;5113686;28;20172;-77
2023/05/30 06:35:21;;;;;;;7.83;4.80;;;17.60;99.90;;;;;;5113648;28;20160;-77
2023/05/30 06:37:47;;;;;;;5.33;4.47;;;17.40;99.90;;;;;;5114012;28;20189;-77
2023/05/30 06:40:13;;;;;;;8.50;5.13;;;17.80;99.90;;;;;;5113418;28;20245;-77
2023/05/30 06:42:38;;;;;;;7.83;5.07;;;18.00;99.90;;;;;;5113803;28;20169;-77
2023/05/30 06:45:04;;;;;;;7.27;4.90;;;18.10;99.90;;;;;;5112362;28;20623;-76
2023/05/30 06:47:30;;;;;;;9.57;5.07;;;18.30;99.90;;;;;;5103676;28;20173;-76
2023/05/30 06:49:56;;;;;;;9.63;5.17;;;18.20;99.90;;;;;;5104023;28;20425;-77
2023/05/30 06:52:21;;;;;;;9.40;4.60;;;18.20;99.90;;;;;;5104036;28;20413;-77
2023/05/30 06:54:47;;;;;;;9.63;5.20;;;18.40;99.90;;;;;;5103596;28;20229;-77
2023/05/30 06:57:12;;;;;;;7.73;4.67;;;18.30;99.90;;;;;;5086119;28;20183;-76
2023/05/30 06:59:38;;;;;;;7.13;5.00;;;18.40;99.90;;;;;;5112737;28;20350;-77
2023/05/30 07:02:04;;;;;;;7.60;5.10;;;18.50;99.90;;;;;;5113649;28;20276;-77
2023/05/30 07:04:30;;;;;;;9.20;4.87;;;18.40;99.90;;;;;;5095266;28;20474;-77
2023/05/30 07:06:55;;;;;;;5.77;4.57;;;18.20;99.90;;;;;;5113710;28;20539;-76
2023/05/30 07:09:21;;;;;;;9.67;5.20;;;18.30;99.90;;;;;;5113294;28;20204;-76
2023/05/30 07:11:47;;;;;;;8.60;5.07;;;18.50;99.90;;;;;;5113244;28;20197;-76
2023/05/30 07:14:12;;;;;;;9.03;5.43;;;18.60;99.90;;;;;;5114309;28;20237;-76
2023/05/30 07:16:38;;;;;;;7.23;5.70;;;18.40;99.90;;;;;;5117749;28;20261;-76
2023/05/30 07:19:05;;;;;;;6.47;4.73;;;18.70;99.90;;;;;;5117378;28;20275;-76
2023/05/30 07:21:30;;;;;;;9.17;5.47;;;18.80;99.90;;;;;;5099395;28;20192;-77
2023/05/30 07:23:56;;;;;;;7.73;5.17;;;18.60;99.90;;;;;;5117439;28;20410;-76
2023/05/30 07:26:22;;;;;;;6.67;4.90;;;18.50;99.90;;;;;;5117946;28;20179;-77
2023/05/30 07:28:48;;;;;;;6.13;5.20;;;18.60;99.90;;;;;;5117022;28;20175;-76
2023/05/30 07:31:13;;;;;;;7.87;4.90;;;18.70;99.90;;;;;;5117106;28;20430;-76
2023/05/30 07:33:39;;;;;;;9.07;4.67;;;18.50;99.90;;;;;;5117585;28;20178;-76
2023/05/30 07:36:05;;;;;;;5.10;4.60;;;18.60;99.90;;;;;;5117068;28;20203;-76
2023/05/30 07:38:31;;;;;;;7.03;5.10;;;18.60;99.90;;;;;;5117223;28;20726;-76
2023/05/30 07:40:57;;;;;;;10.57;6.20;;;18.40;99.90;;;;;;5116826;28;20493;-76
2023/05/30 07:43:22;;;;;;;6.63;5.57;;;18.70;99.90;;;;;;5116854;28;20161;-76
2023/05/30 07:45:48;;;;;;;6.60;4.90;;;18.70;99.90;;;;;;5116943;28;20168;-76
2023/05/30 07:48:13;;;;;;;7.20;4.50;;;18.90;99.90;;;;;;5117058;28;20165;-76
2023/05/30 07:50:39;;;;;;;6.00;5.27;;;19.00;99.90;;;;;;5116920;28;20188;-76
2023/05/30 07:53:04;;;;;;;9.13;5.30;;;19.30;99.90;;;;;;5116940;28;20222;-76
2023/05/30 07:55:30;;;;;;;7.97;5.07;;;19.50;99.80;;;;;;5116746;28;20169;-76
2023/05/30 07:57:55;;;;;;;5.30;4.80;;;19.10;99.90;;;;;;5116319;28;20273;-75
2023/05/30 08:00:21;;;;;;;6.67;4.13;;;18.60;99.90;;;;;;5116621;28;20215;-77
2023/05/30 08:02:47;;;;;;;8.10;5.53;;;18.70;99.90;;;;;;5116979;28;20176;-77
2023/05/30 08:05:13;;;;;;;7.30;5.00;;;19.00;99.90;;;;;;5117193;28;20452;-76
2023/05/30 08:07:38;;;;;;;6.83;4.93;;;19.10;99.90;;;;;;5116958;28;20504;-76
2023/05/30 08:10:04;;;;;;;7.77;5.07;;;19.20;99.90;;;;;;5116296;28;20164;-76
2023/05/30 08:12:30;;;;;;;6.60;4.60;;;19.20;99.90;;;;;;5097663;28;20256;-76
2023/05/30 08:14:56;;;;;;;7.27;5.20;;;19.30;99.80;;;;;;5115988;28;20601;-76
2023/05/30 08:17:27;;;;;;;9.33;4.70;;;19.10;99.70;;;;;;5116340;28;20161;-76
2023/05/30 08:19:53;;;;;;;5.90;4.43;;;19.00;99.90;;;;;;5115995;28;20948;-76
2023/05/30 08:22:21;;;;;;;5.53;4.50;;;19.00;99.90;;;;;;5114614;28;20438;-75
2023/05/30 08:24:50;;;;;;;6.63;4.80;;;19.30;99.60;;;;;;5106607;28;20677;-76
2023/05/30 08:27:16;;;;;;;5.20;4.30;;;19.50;98.90;;;;;;5105798;28;21003;-75
2023/05/30 08:29:42;;;;;;;6.73;4.80;;;19.60;99.20;;;;;;5071360;28;20433;-76
2023/05/30 08:32:08;;;;;;;7.90;5.30;;;19.50;99.20;;;;;;5106277;28;20454;-76
2023/05/30 08:34:34;;;;;;;7.83;4.83;;;19.60;99.10;;;;;;5106933;28;20850;-75
2023/05/30 08:37:00;;;;;;;7.57;5.40;;;19.40;98.90;;;;;;5106310;28;20176;-76
2023/05/30 08:39:26;;;;;;;8.37;4.97;;;19.60;99.20;;;;;;5106368;28;20511;-76
2023/05/30 08:41:52;;;;;;;5.93;5.00;;;19.80;98.20;;;;;;5105991;28;20492;-76
2023/05/30 08:44:19;;;;;;;7.60;5.47;;;20.00;97.90;;;;;;5106110;28;20427;-75
2023/05/30 08:46:45;;;;;;;6.63;4.73;;;20.20;97.60;;;;;;5106254;28;20172;-76
2023/05/30 08:49:18;;;;;;;10.23;5.00;;;20.50;97.00;;;;;;5106044;28;20414;-75
2023/05/30 08:51:44;;;;;;;6.87;4.73;;;20.50;96.40;;;;;;5106158;28;20559;-76
2023/05/30 08:54:17;;;;;;;6.87;5.10;;;20.20;96.90;;;;;;5105776;28;20531;-76
2023/05/30 08:56:48;;;;;;;5.83;4.77;;;20.20;96.60;;;;;;5108433;28;20172;-77
2023/05/30 08:59:19;;;;;;;7.90;5.27;;;20.20;97.10;;;;;;5115146;28;20975;-76
2023/05/30 09:01:49;;;;;;;7.53;5.30;;;20.40;96.90;;;;;;5115806;28;20417;-76
2023/05/30 09:04:15;;;;;;;8.40;5.30;;;20.40;96.60;;;;;;5115622;28;20897;-76
2023/05/30 09:06:42;;;;;;;6.10;5.07;;;20.30;96.60;;;;;;5115463;28;20753;-76
2023/05/30 09:09:11;;;;;;;7.07;5.00;;;20.10;96.90;;;;;;5097273;28;20411;-76
2023/05/30 09:11:36;;;;;;;10.33;5.50;;;20.50;96.80;;;;;;5096949;28;20442;-76
2023/05/30 09:14:02;;;;;;;7.33;4.83;;;20.50;96.20;;;;;;5115196;28;20748;-77
2023/05/30 09:16:27;;;;;;;7.70;4.87;;;20.50;96.10;;;;;;5115768;28;20584;-76
2023/05/30 09:18:53;;;;;;;6.10;4.20;;;20.40;96.20;;;;;;5115428;28;20279;-76
2023/05/30 09:21:20;;;;;;;5.20;4.53;;;20.40;96.20;;;;;;5115264;28;20192;-76
2023/05/30 09:23:46;;;;;;;7.97;4.60;;;20.50;96.60;;;;;;5115487;28;20157;-75
2023/05/30 09:26:15;;;;;;;4.53;3.97;;;20.60;96.10;;;;;;5115900;28;20403;-75
2023/05/30 09:28:43;;;;;;;10.13;5.73;;;20.70;96.10;;;;;;5115445;28;20439;-77
2023/05/30 09:31:10;;;;;;;8.80;5.30;;;20.90;95.70;;;;;;5114876;28;20451;-76
2023/05/30 09:33:47;;;;;;;7.80;5.00;;;20.90;95.50;;;;;;5114654;28;20402;-76
2023/05/30 09:36:20;;;;;;;6.23;4.63;;;20.60;95.90;;;;;;5114894;28;20493;-75
2023/05/30 09:38:53;;;;;;;6.10;4.70;;;20.70;95.80;;;;;;5113710;28;20477;-76
2023/05/30 09:41:20;;;;;;;6.20;4.87;;;20.90;95.40;;;;;;5114551;28;20494;-75
2023/05/30 09:43:52;;;;;;;6.40;4.80;;;21.10;95.30;;;;;;5114814;28;20399;-76
2023/05/30 09:46:19;;;;;;;6.50;4.57;;;21.20;95.10;;;;;;5115237;28;20485;-77
2023/05/30 09:48:45;;;;;;;6.60;3.70;;;21.30;94.60;;;;;;5114509;28;20930;-77
2023/05/30 09:51:11;;;;;;;4.87;4.40;;;21.30;94.70;;;;;;5114587;28;20418;-76
2023/05/30 09:53:37;;;;;;;7.80;4.80;;;21.40;94.70;;;;;;5114490;28;20169;-76
2023/05/30 09:56:03;;;;;;;5.13;4.30;;;21.60;94.30;;;;;;5114297;28;20161;-76
2023/05/30 09:58:28;;;;;;;7.80;4.77;;;21.60;94.50;;;;;;5114471;28;20274;-76
2023/05/30 10:00:56;;;;;;;7.60;4.83;;;21.80;94.20;;;;;;5114631;28;20540;-76
2023/05/30 10:03:41;;;;;;;6.30;5.10;;;21.90;93.90;;;;;;5114377;28;20270;-76
2023/05/30 10:06:16;;;;;;;7.43;4.70;;;22.00;93.20;;;;;;5113270;28;20413;-77
2023/05/30 10:08:44;;;;;;;4.90;4.40;;;22.00;92.90;;;;;;5114147;28;20459;-77
2023/05/30 10:11:11;;;;;;;5.83;4.10;;;22.00;93.10;;;;;;5114200;28;20462;-76
2023/05/30 10:13:37;;;;;;;6.20;3.90;;;22.20;92.80;;;;;;5113824;28;20407;-76
2023/05/30 10:16:09;;;;;;;5.57;4.30;;;22.00;92.30;;;;;;5114020;28;20399;-76
2023/05/30 10:18:39;;;;;;;6.83;4.17;;;22.00;92.40;;;;;;5114139;28;20820;-76
2023/05/30 10:21:06;;;;;;;8.13;5.00;;;21.90;92.40;;;;;;5113798;28;20414;-76
2023/05/30 10:23:32;;;;;;;6.57;3.73;;;22.10;91.60;;;;;;5114258;28;20870;-76
2023/05/30 10:26:02;;;;;;;5.33;4.27;;;22.10;91.90;;;;;;5114567;28;20400;-77
2023/05/30 10:28:29;;;;;;;5.57;4.23;;;22.40;92.00;;;;;;5095480;28;20703;-76
2023/05/30 10:30:56;;;;;;;6.97;4.60;;;22.50;91.40;;;;;;5113834;28;20426;-77
2023/05/30 10:33:25;;;;;;;6.83;3.93;;;22.40;91.30;;;;;;5095432;28;20443;-77
2023/05/30 10:35:51;;;;;;;7.70;4.70;;;22.40;91.80;;;;;;5113704;28;20458;-76
2023/05/30 10:38:18;;;;;;;6.60;4.30;;;22.70;91.50;;;;;;5113679;28;20457;-76
2023/05/30 10:40:57;;;;;;;4.87;4.37;;;23.00;90.80;;;;;;5110535;22;20208;-74
2023/05/30 10:43:36;;;;;;;7.67;4.60;;;23.10;90.30;;;;;;5054662;28;20930;-76
2023/05/30 10:46:08;;;;;;;10.13;4.97;;;23.10;90.40;;;;;;5051840;28;20405;-75
2023/05/30 10:48:52;;;;;;;6.73;4.40;;;23.20;91.10;;;;;;5053083;28;20883;-75
2023/05/30 10:51:18;;;;;;;6.03;4.33;;;23.30;90.00;;;;;;5053262;28;20409;-76
2023/05/30 10:53:46;;;;;;;6.40;4.37;;;23.10;90.20;;;;;;5041220;28;20401;-74
2023/05/30 10:56:31;;;;;;;9.20;4.37;;;23.30;90.20;;;;;;5073448;28;20400;-75
2023/05/30 10:58:56;;;;;;;5.97;3.90;;;23.00;89.10;;;;;;5054711;28;20463;-75
2023/05/30 11:01:30;;;;;;;5.87;4.03;;;23.10;89.80;;;;;;5073118;28;20543;-76
2023/05/30 11:03:57;;;;;;;5.30;4.50;;;23.60;88.90;;;;;;5051762;28;20924;-76
2023/05/30 11:06:26;;;;;;;7.20;4.03;;;23.70;87.30;;;;;;5052920;28;20844;-75
2023/05/30 11:08:53;;;;;;;5.40;3.70;;;23.50;86.60;;;;;;5035077;28;20420;-76
2023/05/30 11:11:19;;;;;;;4.17;3.77;;;23.60;86.70;;;;;;5053071;28;20792;-76
2023/05/30 11:13:50;;;;;;;6.17;4.20;;;23.50;87.00;;;;;;5052656;28;20408;-75
2023/05/30 11:16:24;;;;;;;5.87;4.30;;;23.30;86.80;;;;;;5034866;28;20421;-76
2023/05/30 11:18:51;;;;;;;7.47;4.87;;;23.30;86.60;;;;;;5053155;28;20950;-74
2023/05/30 11:21:55;;;;;;;6.33;4.27;;;23.50;86.00;;;;;;5045822;28;20448;-75
2023/05/30 11:24:21;;;;;;;5.87;4.10;;;23.60;84.70;;;;;;5063438;28;20400;-74
2023/05/30 11:26:57;;;;;;;7.10;4.63;;;24.30;83.60;;;;;;5062242;28;20484;-74
2023/05/30 11:29:29;;;;;;;6.57;4.30;;;25.20;81.80;;;;;;5062080;28;20170;-76
2023/05/30 11:31:56;;;;;;;7.20;4.70;;;26.30;77.80;;;;;;5061481;28;20507;-75
2023/05/30 11:34:22;;;;;;;6.07;3.80;;;27.40;76.80;;;;;;5073378;28;20462;-75
2023/05/30 11:36:48;;;;;;;5.40;4.00;;;27.90;73.50;;;;;;5074762;28;20388;-76
2023/05/30 11:39:15;;;;;;;9.40;4.40;;;27.80;70.90;;;;;;5072942;28;20474;-76
2023/05/30 11:41:41;;;;;;;7.50;3.53;;;29.10;66.20;;;;;;5072452;28;20448;-76
2023/05/30 11:44:08;;;;;;;5.77;3.47;;;29.40;65.10;;;;;;5072843;28;20404;-76
2023/05/30 11:46:34;;;;;;;4.90;3.67;;;29.80;60.30;;;;;;5072672;28;20493;-75
2023/05/30 11:49:04;;;;;;;4.63;3.67;;;29.10;60.90;;;;;;5072455;28;20906;-75
2023/05/30 11:51:31;;;;;;;5.10;3.50;;;29.10;61.50;;;;;;5072943;28;20992;-76
2023/05/30 11:54:01;;;;;;;4.10;3.50;;;28.30;60.80;;;;;;5072632;28;20416;-76
2023/05/30 11:56:30;;;;;;;4.93;3.70;;;28.90;62.00;;;;;;5072415;28;21000;-76
2023/05/30 11:58:59;;;;;;;4.70;4.30;;;29.60;59.80;;;;;;5072273;28;20440;-76
2023/05/30 12:01:27;;;;;;;6.67;4.57;;;28.80;58.70;;;;;;5073491;28;20416;-76
2023/05/30 12:03:56;;;;;;;7.80;4.37;;;28.40;60.30;;;;;;5075961;28;20549;-76
2023/05/30 12:06:22;;;;;;;7.10;4.33;;;29.00;58.70;;;;;;5057968;28;20885;-76
2023/05/30 12:08:48;;;;;;;7.10;3.90;;;28.70;58.00;;;;;;5058011;28;20497;-75
2023/05/30 12:11:14;;;;;;;4.90;3.50;;;29.40;58.30;;;;;;5075603;28;20518;-76
2023/05/30 12:13:40;;;;;;;5.70;4.10;;;30.60;56.50;;;;;;5058122;28;20573;-76
2023/05/30 12:16:06;;;;;;;6.27;3.93;;;30.00;55.90;;;;;;5075828;28;20412;-77
2023/05/30 12:18:33;;;;;;;7.40;3.03;;;30.30;54.50;;;;;;5056897;28;20455;-76
2023/05/30 12:21:02;;;;;;;5.03;3.50;;;30.50;54.40;;;;;;5076245;28;20432;-76
2023/05/30 12:23:28;;;;;;;5.80;3.87;;;30.40;54.20;;;;;;5075655;28;20405;-76
2023/05/30 12:25:54;;;;;;;5.80;3.83;;;30.80;53.70;;;;;;5076084;28;20427;-75
2023/05/30 12:28:21;;;;;;;4.17;3.23;;;31.20;53.10;;;;;;5075619;28;20408;-76
2023/05/30 12:30:50;;;;;;;4.53;3.70;;;31.00;53.40;;;;;;5075136;28;20416;-76
2023/05/30 12:33:16;;;;;;;5.63;3.80;;;31.20;52.30;;;;;;5057631;28;20412;-75
2023/05/30 12:35:42;;;;;;;5.87;3.60;;;31.50;51.50;;;;;;5075518;28;20408;-76
2023/05/30 12:38:08;;;;;;;3.93;3.03;;;31.90;52.10;;;;;;5075257;28;20988;-76
2023/05/30 12:40:34;;;;;;;4.67;3.37;;;32.20;49.10;;;;;;5057416;28;20554;-75
2023/05/30 12:43:00;;;;;;;6.77;3.50;;;30.20;52.00;;;;;;5067482;28;20182;-75
2023/05/30 12:45:25;;;;;;;4.67;3.40;;;30.80;52.30;;;;;;5065550;28;20735;-75
2023/05/30 12:47:52;;;;;;;4.63;4.13;;;31.60;49.70;;;;;;5045823;28;20652;-76